Washington Dulles International Airport
KIAD : rendu visible

Aérodrome :











RETROUVEZ-NOUS SUR...

 
LOGIN :

S'inscrire | Disclaimer

   EN    FR    IT 

 









Légende :    VFR   VFR Marginal   IFR   IFR Intensif   IFR Très Intensif
Visi : 
Plafond : 
>= 8 km
>= 3000ft
5 à 8 km
1000 à 3000 ft
1500m à 5 km
500 à 1000 ft
800 à 1500m
200 à 500 ft
< 800m
< 200 ft
Symboles :   Orages  Brouillard  Fortes neiges  Fortes précipitations  Vent > 20 kt






- Altitude de l'aérodrome : 312 ft
- Code IATA : IAD


KIAD - Washington Dulles International

DERNIER METAR :
  • 171152Z 36009KT 10SM BKN023 OVC031 01/M12 A3029 RMK AO2 SLP259 T00111117 10017 20011 56002

METARs EXPIRÉS :
  • 171116Z 36008KT 10SM BKN023 OVC032 02/M11 A3029 RMK AO2 T00171111
  • 171052Z 36009KT 10SM FEW025 SCT029 OVC034 02/M11 A3029 RMK AO2 SLP258 T00171111
  • 171011Z 36011KT 10SM FEW025 SCT029 OVC034 02/M12 A3029 RMK AO2 T00171122
  • 170952Z 36008KT 10SM SCT025 BKN029 OVC035 02/M12 A3029 RMK AO2 SLP259 T00171122
  • 170936Z 36008KT 10SM BKN029 BKN035 OVC040 02/M12 A3029 RMK AO2 T00171122

TAF KIAD
Valide du 17 à 12h jusqu'au 18 à 18h UTC


171129Z 1712/1818 36007KT P6SM SCT015 BKN020
FM171800 01008KT P6SM SCT030 BKN035
FM172000 01008KT P6SM SCT035 BKN050
FM172300 01008KT P6SM SCT025 BKN040
FM180100 36008KT P6SM SCT015 BKN025
FM180400 35006KT P6SM SCT010 BKN015



MET'MAP, la Météo Aéronautique d'un coup d'oeil ! - Copyright ORBIFLY Décembre 2007 - Disclaimer

ORBIFLY MET'MAP TEAM :

Programmation & Développement : Alexandra Zaïnal
Conception & Développement : Baudouin d'Aumeries
Co-Programmation & Développement : Marc-Olivier Méhu
Soutien technique & logistique : Manuel Goepfert

Contact : metmap@orbifly.com




SOURCES & CREDITS :

   NOAA       Earth
Advisory